Time;durP1;ratioP1;P1;durP2;ratioP2;P2;SDS_P1;SDS_P2;PMS_P1;PMS_P2;Temp;Humidity;BMP_temperature;BMP_pressure;BME280_temperature;BME280_humidity;BME280_pressure;Samples;Min_cycle;Max_cycle;Signal;HPM_P1;HPM_P2
2022/10/05 00:01:38;;;;;;;3.75;1.90;;;14.40;73.20;;;;;;2407259;52;20938;-77
2022/10/05 00:04:37;;;;;;;3.42;2.03;;;14.40;73.30;;;;;;2574351;52;20915;-77
2022/10/05 00:07:15;;;;;;;2.87;1.80;;;14.40;73.00;;;;;;2373449;52;21581;-78
2022/10/05 00:09:43;;;;;;;3.62;2.20;;;14.40;73.60;;;;;;2431219;53;21015;-78
2022/10/05 00:12:16;;;;;;;4.60;2.40;;;14.40;74.10;;;;;;2375685;53;21561;-77
2022/10/05 00:14:43;;;;;;;4.50;2.30;;;14.40;74.30;;;;;;2419382;53;20964;-77
2022/10/05 00:17:14;;;;;;;5.85;2.33;;;14.40;74.50;;;;;;2401575;53;20950;-77
2022/10/05 00:19:45;;;;;;;3.92;2.40;;;14.40;75.30;;;;;;2575850;53;21490;-77
2022/10/05 00:22:15;;;;;;;4.60;2.17;;;14.40;74.70;;;;;;2356385;53;20957;-77
2022/10/05 00:24:43;;;;;;;6.18;2.35;;;14.40;74.90;;;;;;2478876;52;21448;-77
2022/10/05 00:27:19;;;;;;;3.75;2.20;;;14.50;75.10;;;;;;2516531;52;21038;-78
2022/10/05 00:29:46;;;;;;;3.50;2.10;;;14.50;75.10;;;;;;2343762;53;20968;-77
2022/10/05 00:32:12;;;;;;;4.32;2.25;;;14.50;75.40;;;;;;2409340;53;21017;-77
2022/10/05 00:34:38;;;;;;;4.00;2.50;;;14.50;75.40;;;;;;2604075;52;20948;-77
2022/10/05 00:37:05;;;;;;;4.07;2.50;;;14.60;75.50;;;;;;2402421;52;21516;-78
2022/10/05 00:39:31;;;;;;;3.87;2.00;;;14.60;75.60;;;;;;2368417;53;20920;-79
2022/10/05 00:43:56;;;;;;;3.80;2.25;;;14.70;75.60;;;;;;2360262;52;20931;-78
2022/10/05 00:48:08;;;;;;;3.17;1.83;;;14.70;74.50;;;;;;2393451;53;21268;-80
2022/10/05 00:51:35;;;;;;;3.20;1.80;;;14.80;74.40;;;;;;2390380;53;20947;-80
2022/10/05 00:54:48;;;;;;;3.20;1.65;;;14.80;74.30;;;;;;2355978;53;20974;-78
2022/10/05 00:58:43;;;;;;;3.15;1.73;;;14.80;74.30;;;;;;2509848;52;21432;-77
2022/10/05 01:03:02;;;;;;;2.87;1.50;;;14.80;74.30;;;;;;2437804;53;20963;-77
2022/10/05 01:06:04;;;;;;;2.60;1.33;;;14.80;74.70;;;;;;2345326;53;20903;-78
2022/10/05 01:08:44;;;;;;;2.67;1.70;;;14.80;74.20;;;;;;2344604;53;21095;-77
2022/10/05 01:11:27;;;;;;;3.45;1.92;;;14.80;74.30;;;;;;2344273;53;20984;-77
2022/10/05 01:14:26;;;;;;;3.03;1.60;;;14.80;74.30;;;;;;2429530;53;21483;-78
2022/10/05 01:17:04;;;;;;;2.97;1.60;;;14.80;74.00;;;;;;2420056;53;20969;-77
2022/10/05 01:21:19;;;;;;;3.90;1.80;;;14.80;74.30;;;;;;2342518;53;21327;-78
2022/10/05 01:24:18;;;;;;;5.60;1.80;;;14.80;73.50;;;;;;2448483;52;20938;-78
2022/10/05 01:26:59;;;;;;;3.12;1.75;;;14.70;73.50;;;;;;2341450;53;21399;-77
2022/10/05 01:31:17;;;;;;;2.78;1.62;;;14.70;73.60;;;;;;2384078;53;20996;-77
2022/10/05 01:35:28;;;;;;;2.85;1.45;;;14.70;73.00;;;;;;2388568;53;21015;-78
2022/10/05 01:39:33;;;;;;;5.90;2.10;;;14.60;73.60;;;;;;2347955;53;21009;-77
2022/10/05 01:42:31;;;;;;;2.80;1.52;;;14.60;73.50;;;;;;2586942;53;21422;-77
2022/10/05 01:46:32;;;;;;;3.45;2.05;;;14.60;73.60;;;;;;2413898;53;21889;-78
2022/10/05 01:50:03;;;;;;;3.15;1.62;;;14.60;73.00;;;;;;2394718;53;21493;-77
2022/10/05 01:53:07;;;;;;;4.40;1.50;;;14.60;73.10;;;;;;2383276;53;21296;-77
2022/10/05 01:55:40;;;;;;;5.15;1.83;;;14.50;73.10;;;;;;2370390;53;20946;-77
2022/10/05 01:58:40;;;;;;;4.03;1.83;;;14.50;73.30;;;;;;2348390;53;21371;-77
2022/10/05 02:01:44;;;;;;;4.40;1.70;;;14.50;72.80;;;;;;2367864;53;20992;-77
2022/10/05 02:04:32;;;;;;;6.72;2.30;;;14.40;73.30;;;;;;2450952;52;21403;-78
2022/10/05 02:08:02;;;;;;;3.83;1.98;;;14.40;73.40;;;;;;2345278;53;20976;-77
2022/10/05 02:10:37;;;;;;;4.20;1.80;;;14.40;73.50;;;;;;2403047;53;21035;-77
2022/10/05 02:13:09;;;;;;;3.35;2.20;;;14.30;73.30;;;;;;2406033;52;21751;-78
2022/10/05 02:15:37;;;;;;;;;;;14.30;73.20;;;;;;2445578;52;20995;-77
2022/10/05 02:18:09;;;;;;;3.33;1.65;;;14.30;72.40;;;;;;2355695;53;20154;-77
2022/10/05 02:20:36;;;;;;;3.47;2.03;;;14.30;73.30;;;;;;2347921;53;21089;-77
2022/10/05 02:23:09;;;;;;;2.83;1.80;;;14.30;73.40;;;;;;2357571;53;21514;-77
2022/10/05 02:25:37;;;;;;;5.00;2.10;;;14.20;73.00;;;;;;2529243;52;21054;-77
2022/10/05 02:28:59;;;;;;;3.20;1.98;;;14.20;73.00;;;;;;2386942;53;21711;-77
2022/10/05 02:31:46;;;;;;;2.55;1.58;;;14.10;72.30;;;;;;2378768;53;21507;-77
2022/10/05 02:34:30;;;;;;;2.83;1.87;;;14.10;72.80;;;;;;2349157;53;20973;-77
2022/10/05 02:40:46;;;;;;;3.50;2.05;;;14.10;72.50;;;;;;2422737;54;21052;-77
2022/10/05 02:43:55;;;;;;;2.33;1.25;;;14.00;71.80;;;;;;2360802;53;21399;-77
2022/10/05 02:46:40;;;;;;;3.00;1.30;;;14.00;71.90;;;;;;2362953;53;20962;-77
2022/10/05 03:02:25;;;;;;;4.78;2.03;;;13.90;72.20;;;;;;2494431;53;21555;-77
2022/10/05 03:07:33;;;;;;;2.17;0.98;;;13.80;71.70;;;;;;2444238;53;21773;-77
2022/10/05 03:11:58;;;;;;;2.47;1.40;;;13.70;71.50;;;;;;2468661;52;21057;-77
2022/10/05 03:16:34;;;;;;;2.55;1.20;;;13.60;71.90;;;;;;2586251;53;20959;-77
2022/10/05 03:22:24;;;;;;;3.67;1.33;;;13.50;71.20;;;;;;2395627;52;21000;-77
2022/10/05 03:26:31;;;;;;;2.33;1.40;;;13.40;71.10;;;;;;2519335;53;21327;-77
2022/10/05 03:35:52;;;;;;;4.45;1.50;;;13.30;71.20;;;;;;2380589;53;21000;-77
2022/10/05 03:38:42;;;;;;;2.30;1.17;;;13.20;71.30;;;;;;2510534;53;21692;-76
2022/10/05 03:44:46;;;;;;;2.87;1.45;;;13.10;71.50;;;;;;2375621;53;22183;-77
2022/10/05 03:48:49;;;;;;;2.55;1.35;;;13.10;72.10;;;;;;2365368;53;21564;-77
2022/10/05 03:51:59;;;;;;;3.78;1.60;;;13.00;71.30;;;;;;2400923;53;21010;-77
2022/10/05 03:54:35;;;;;;;2.62;1.33;;;13.00;71.40;;;;;;2403679;52;21050;-77
2022/10/05 03:57:18;;;;;;;3.35;1.87;;;12.90;72.00;;;;;;2390399;53;20938;-77
2022/10/05 04:00:04;;;;;;;4.72;2.00;;;12.90;72.20;;;;;;2376195;53;22085;-77
2022/10/05 04:02:37;;;;;;;4.20;1.95;;;12.80;72.10;;;;;;2432984;53;20995;-77
2022/10/05 04:05:17;;;;;;;3.97;2.03;;;12.80;72.20;;;;;;2358889;53;20903;-77
2022/10/05 04:07:46;;;;;;;3.30;1.92;;;12.80;72.10;;;;;;2587282;53;20937;-76
2022/10/05 04:10:16;;;;;;;5.62;2.10;;;12.80;72.20;;;;;;2545853;52;21881;-77
2022/10/05 04:12:48;;;;;;;4.82;2.25;;;12.80;72.20;;;;;;2350838;53;21900;-77
2022/10/05 04:15:35;;;;;;;4.22;2.20;;;12.70;72.10;;;;;;2367147;53;20989;-77
2022/10/05 04:18:07;;;;;;;3.62;1.87;;;12.70;71.70;;;;;;2340969;53;20968;-77
2022/10/05 04:20:43;;;;;;;3.50;2.03;;;12.60;71.90;;;;;;2398644;53;21046;-76
2022/10/05 04:24:44;;;;;;;3.87;2.30;;;12.60;71.90;;;;;;2453596;53;20999;-77
2022/10/05 04:27:21;;;;;;;3.00;1.83;;;12.60;71.20;;;;;;2441128;53;21295;-77
2022/10/05 04:29:54;;;;;;;4.65;2.10;;;12.60;71.90;;;;;;2525950;52;21424;-77
2022/10/05 04:32:42;;;;;;;3.35;1.90;;;12.60;72.00;;;;;;2346370;53;21306;-76
2022/10/05 04:36:12;;;;;;;3.78;2.25;;;12.50;71.90;;;;;;2468967;52;21785;-77
2022/10/05 04:40:13;;;;;;;3.03;1.70;;;12.50;71.60;;;;;;2349521;53;21456;-77
2022/10/05 04:42:46;;;;;;;3.92;1.52;;;12.40;71.70;;;;;;2344640;53;20963;-77
2022/10/05 04:45:37;;;;;;;3.10;1.95;;;12.40;71.90;;;;;;2397436;52;20962;-76
2022/10/05 04:49:08;;;;;;;2.97;1.90;;;12.40;72.00;;;;;;2383352;53;21364;-77
2022/10/05 04:52:03;;;;;;;4.07;2.12;;;12.30;71.70;;;;;;2352544;53;21070;-77
2022/10/05 04:57:51;;;;;;;3.00;1.85;;;12.30;71.90;;;;;;2376605;53;20958;-77
2022/10/05 05:00:24;;;;;;;2.95;1.45;;;12.30;72.00;;;;;;2371008;53;21985;-76
2022/10/05 05:03:14;;;;;;;2.70;1.60;;;12.30;72.20;;;;;;2341441;53;21366;-76
2022/10/05 05:05:53;;;;;;;3.65;1.90;;;12.30;72.00;;;;;;2516481;53;21016;-76
2022/10/05 05:13:42;;;;;;;3.12;1.75;;;12.20;72.20;;;;;;2350287;53;20976;-76
2022/10/05 05:20:28;;;;;;;3.85;1.87;;;12.20;71.30;;;;;;2364803;53;21624;-77
2022/10/05 05:29:04;;;;;;;6.37;3.08;;;12.20;71.50;;;;;;2386862;53;21376;-77
2022/10/05 05:32:11;;;;;;;3.65;2.17;;;12.10;71.40;;;;;;2383936;53;20990;-77
2022/10/05 05:37:56;;;;;;;4.95;2.85;;;12.10;72.60;;;;;;2366180;53;20970;-77
2022/10/05 05:40:28;;;;;;;4.30;2.35;;;12.10;72.40;;;;;;2354746;53;21322;-76
2022/10/05 05:43:25;;;;;;;;;;;12.00;72.50;;;;;;2484974;52;21026;-77
2022/10/05 05:45:59;;;;;;;4.37;2.28;;;12.00;71.80;;;;;;2345252;53;20079;-76
2022/10/05 05:48:42;;;;;;;4.55;2.97;;;12.00;72.60;;;;;;2448970;53;21027;-77
2022/10/05 05:52:43;;;;;;;4.22;2.83;;;12.00;72.50;;;;;;2588547;52;21411;-77
2022/10/05 05:55:24;;;;;;;4.05;2.05;;;12.00;71.90;;;;;;2344618;53;21038;-76
2022/10/05 05:58:34;;;;;;;4.75;2.17;;;12.00;72.60;;;;;;2324204;53;21027;-77
2022/10/05 06:01:09;;;;;;;3.67;2.12;;;12.00;72.20;;;;;;2590050;52;21276;-77
2022/10/05 06:03:44;;;;;;;3.25;1.87;;;12.00;72.50;;;;;;2463327;52;21034;-77
2022/10/05 06:06:12;;;;;;;3.50;2.30;;;12.00;72.60;;;;;;2343921;53;20920;-76
2022/10/05 06:08:55;;;;;;;4.07;2.60;;;11.90;72.50;;;;;;2422603;53;21032;-77
2022/10/05 06:11:49;;;;;;;4.15;2.75;;;11.90;72.50;;;;;;2348044;53;21939;-77
2022/10/05 06:14:36;;;;;;;4.85;2.60;;;11.90;72.30;;;;;;2346009;52;21016;-77
2022/10/05 06:17:14;;;;;;;3.90;2.15;;;11.90;72.40;;;;;;2381827;53;21445;-77
2022/10/05 06:19:41;;;;;;;4.45;2.10;;;11.90;72.70;;;;;;2428139;52;21551;-77
2022/10/05 06:22:38;;;;;;;3.58;2.00;;;11.90;72.90;;;;;;2345592;53;21830;-76
2022/10/05 06:27:02;;;;;;;4.25;2.60;;;11.90;72.50;;;;;;2374546;53;20927;-77
2022/10/05 06:34:52;;;;;;;3.85;2.15;;;11.90;72.20;;;;;;2344307;53;21015;-77
2022/10/05 06:39:02;;;;;;;4.25;2.03;;;12.00;72.40;;;;;;2361433;53;20985;-77
2022/10/05 06:42:00;;;;;;;3.40;1.95;;;12.00;73.00;;;;;;2348255;53;20979;-77
2022/10/05 06:49:57;;;;;;;4.55;2.85;;;12.00;73.10;;;;;;2387927;53;20987;-77
2022/10/05 06:52:27;;;;;;;4.87;1.95;;;12.10;73.70;;;;;;2381300;53;21395;-77
2022/10/05 06:58:52;;;;;;;4.65;2.72;;;12.20;74.10;;;;;;2541048;52;20924;-77
2022/10/05 07:01:50;;;;;;;4.30;2.58;;;12.20;73.80;;;;;;2403781;52;21493;-77
2022/10/05 07:07:41;;;;;;;6.25;3.30;;;12.30;74.70;;;;;;2347375;53;21339;-77
2022/10/05 07:12:59;;;;;;;5.07;3.30;;;12.40;74.50;;;;;;2538405;52;20904;-77
2022/10/05 07:20:41;;;;;;;4.40;3.20;;;12.60;75.00;;;;;;2396488;53;21017;-77
2022/10/05 07:23:30;;;;;;;3.95;2.40;;;12.80;75.70;;;;;;2346079;53;21451;-77
2022/10/05 07:26:11;;;;;;;4.00;2.55;;;12.90;76.80;;;;;;2343369;53;20984;-80
2022/10/05 07:28:48;;;;;;;4.90;3.03;;;13.00;77.30;;;;;;2588348;52;21039;-77
2022/10/05 07:31:35;;;;;;;5.07;3.00;;;13.10;77.60;;;;;;2389509;52;21438;-77
2022/10/05 07:37:53;;;;;;;4.72;3.22;;;13.20;77.70;;;;;;2411614;53;21323;-78
2022/10/05 07:40:38;;;;;;;4.57;2.22;;;13.50;77.50;;;;;;2394405;53;21816;-78
2022/10/05 07:44:57;;;;;;;4.07;2.35;;;13.60;78.30;;;;;;2431238;52;21056;-78
2022/10/05 07:47:39;;;;;;;5.97;2.78;;;13.80;78.20;;;;;;2360832;54;20978;-78
2022/10/05 07:51:08;;;;;;;4.30;2.87;;;13.90;78.80;;;;;;2428420;52;21439;-80
2022/10/05 07:53:37;;;;;;;4.28;2.55;;;14.10;78.70;;;;;;2387138;53;20934;-78
2022/10/05 07:56:12;;;;;;;6.15;3.05;;;14.10;79.10;;;;;;2378266;53;20999;-77
2022/10/05 07:58:46;;;;;;;4.65;3.08;;;14.30;79.40;;;;;;2480481;52;20964;-79
2022/10/05 08:01:30;;;;;;;4.65;3.40;;;14.40;79.60;;;;;;2397001;53;21021;-78
2022/10/05 08:04:20;;;;;;;4.45;3.00;;;14.50;79.80;;;;;;2378198;52;20988;-80
2022/10/05 08:06:49;;;;;;;4.37;3.05;;;14.60;80.00;;;;;;2399486;52;21035;-79
2022/10/05 08:10:59;;;;;;;4.80;3.12;;;14.80;80.20;;;;;;2347894;53;21015;-80
2022/10/05 08:13:33;;;;;;;5.72;3.75;;;15.00;79.60;;;;;;2413230;53;20995;-81
2022/10/05 08:16:02;;;;;;;4.25;2.90;;;15.10;80.20;;;;;;2359229;53;21048;-79
2022/10/05 08:19:46;;;;;;;6.10;2.85;;;15.20;80.30;;;;;;2593376;52;21465;-79
2022/10/05 08:22:18;;;;;;;4.15;2.72;;;15.30;80.00;;;;;;2344043;53;21951;-77
2022/10/05 08:25:36;;;;;;;5.45;3.05;;;15.50;80.30;;;;;;2355135;53;20959;-77
2022/10/05 08:29:40;;;;;;;4.35;2.78;;;15.60;79.80;;;;;;2412926;53;21351;-79
2022/10/05 08:33:30;;;;;;;3.50;2.42;;;15.70;80.20;;;;;;2420004;53;21985;-79
2022/10/05 08:36:09;;;;;;;3.95;2.65;;;16.00;79.60;;;;;;2372751;53;21050;-80
2022/10/05 08:38:35;;;;;;;4.53;2.62;;;16.10;80.30;;;;;;2358633;53;20980;-79
2022/10/05 08:41:31;;;;;;;3.85;2.62;;;16.20;80.60;;;;;;2344486;53;21039;-78
2022/10/05 08:53:24;;;;;;;4.20;2.65;;;16.30;80.40;;;;;;2372012;53;20929;-80
2022/10/05 08:59:20;;;;;;;3.78;2.20;;;16.70;79.60;;;;;;2349737;53;20947;-78
2022/10/05 09:03:57;;;;;;;4.22;2.50;;;17.00;79.80;;;;;;2356562;53;21390;-79
2022/10/05 09:13:14;;;;;;;4.60;2.65;;;17.20;80.00;;;;;;2347988;53;21023;-79
2022/10/05 09:17:51;;;;;;;3.70;2.15;;;17.30;81.00;;;;;;2419556;53;21060;-79
2022/10/05 09:20:29;;;;;;;3.97;2.53;;;17.80;80.30;;;;;;2347565;53;20951;-79
2022/10/05 09:23:12;;;;;;;4.10;2.85;;;17.90;81.20;;;;;;2391633;53;21095;-79
2022/10/05 09:27:13;;;;;;;3.72;2.60;;;18.00;81.50;;;;;;2459910;53;20952;-79
2022/10/05 09:30:02;;;;;;;4.32;2.72;;;18.20;80.70;;;;;;2346799;53;21002;-81
2022/10/05 09:34:21;;;;;;;4.90;2.72;;;18.30;81.40;;;;;;2345312;53;20968;-80
2022/10/05 09:40:21;;;;;;;3.90;2.40;;;18.40;81.60;;;;;;2463356;52;20930;-79
2022/10/05 09:43:16;;;;;;;3.42;2.25;;;18.80;81.10;;;;;;2445224;53;20955;-79
2022/10/05 09:47:35;;;;;;;4.22;2.33;;;18.90;81.80;;;;;;2342653;53;20940;-80
2022/10/05 09:50:39;;;;;;;3.30;1.80;;;19.00;81.80;;;;;;2405091;53;21422;-81
2022/10/05 09:56:23;;;;;;;3.92;2.10;;;19.20;81.80;;;;;;2437198;53;20952;-80
2022/10/05 10:02:15;;;;;;;3.80;2.00;;;19.50;81.50;;;;;;2363182;53;21418;-79
2022/10/05 10:08:19;;;;;;;4.55;1.70;;;19.80;81.50;;;;;;2354388;53;21111;-79
2022/10/05 10:13:30;;;;;;;4.95;1.95;;;20.10;81.50;;;;;;2430003;53;20963;-79
2022/10/05 10:16:17;;;;;;;4.12;1.52;;;20.30;81.60;;;;;;2343078;54;20963;-79
2022/10/05 10:20:32;;;;;;;3.20;2.05;;;20.40;82.00;;;;;;2345615;53;21285;-80
2022/10/05 10:24:44;;;;;;;3.78;1.92;;;20.60;81.40;;;;;;2346814;53;21390;-80
2022/10/05 10:27:30;;;;;;;4.05;2.00;;;20.70;81.60;;;;;;2341964;53;20961;-80
2022/10/05 10:30:24;;;;;;;3.25;1.80;;;20.90;83.40;;;;;;2342994;54;21008;-80
2022/10/05 10:33:17;;;;;;;3.75;2.10;;;21.00;82.00;;;;;;2357867;53;21269;-80
2022/10/05 10:39:00;;;;;;;3.72;1.73;;;21.10;82.00;;;;;;2391859;53;21008;-79
2022/10/05 10:41:51;;;;;;;3.58;1.77;;;21.30;81.60;;;;;;2391752;53;21003;-80
2022/10/05 10:44:52;;;;;;;2.80;1.55;;;21.50;81.80;;;;;;2587154;53;22267;-80
2022/10/05 10:48:53;;;;;;;3.00;1.65;;;21.60;81.30;;;;;;2396775;53;20988;-79
2022/10/05 10:51:51;;;;;;;2.37;1.25;;;21.70;80.60;;;;;;2343767;53;21431;-79
2022/10/05 10:55:59;;;;;;;7.43;2.70;;;21.90;81.10;;;;;;2350465;53;20988;-80
2022/10/05 11:01:51;;;;;;;4.07;1.75;;;22.00;81.50;;;;;;2362069;54;21504;-80
2022/10/05 11:07:31;;;;;;;2.40;1.10;;;22.10;80.40;;;;;;2452447;53;20995;-80
2022/10/05 11:13:44;;;;;;;2.30;1.05;;;22.30;80.10;;;;;;2368551;53;20952;-80
2022/10/05 11:19:46;;;;;;;2.50;1.00;;;22.60;79.00;;;;;;2341901;53;20989;-80
2022/10/05 11:23:19;;;;;;;2.35;1.00;;;22.70;79.50;;;;;;2398182;53;20893;-81
2022/10/05 11:25:55;;;;;;;1.90;0.88;;;22.80;78.30;;;;;;2365943;53;20960;-76
2022/10/05 11:28:50;;;;;;;1.87;0.93;;;22.80;79.50;;;;;;2355326;53;21386;-81
2022/10/05 11:31:42;;;;;;;2.67;1.05;;;22.90;78.60;;;;;;2364062;53;20964;-80
2022/10/05 11:37:13;;;;;;;1.95;1.00;;;22.90;78.00;;;;;;2342315;53;21601;-81
2022/10/05 11:40:35;;;;;;;2.10;0.98;;;23.10;77.60;;;;;;2343655;54;20984;-80
2022/10/05 11:45:11;;;;;;;2.95;0.90;;;23.10;78.90;;;;;;2343432;53;20984;-79
2022/10/05 11:50:41;;;;;;;3.78;0.90;;;23.20;77.20;;;;;;2343279;54;21019;-78
2022/10/05 11:53:21;;;;;;;2.05;0.90;;;23.30;76.80;;;;;;2434821;53;21484;-80
2022/10/05 11:57:32;;;;;;;3.33;0.88;;;23.40;78.10;;;;;;2344551;53;20916;-81
2022/10/05 12:00:25;;;;;;;1.95;0.90;;;23.50;77.10;;;;;;2343246;54;20964;-81
2022/10/05 12:06:09;;;;;;;3.60;0.80;;;23.50;78.10;;;;;;2367699;53;20968;-80
2022/10/05 12:12:14;;;;;;;1.77;0.80;;;23.50;76.20;;;;;;2379063;53;21003;-82
2022/10/05 12:16:42;;;;;;;1.77;0.80;;;23.60;76.00;;;;;;2391897;53;21421;-80
2022/10/05 12:19:12;;;;;;;2.12;0.88;;;23.70;75.80;;;;;;2346157;53;21427;-80
2022/10/05 12:21:45;;;;;;;2.80;0.90;;;23.70;77.30;;;;;;2343082;53;20948;-81
2022/10/05 12:25:03;;;;;;;1.92;0.75;;;23.70;76.80;;;;;;2448192;53;20971;-80
2022/10/05 12:27:36;;;;;;;1.20;0.68;;;23.70;75.40;;;;;;2343687;53;21012;-80
2022/10/05 12:31:46;;;;;;;2.35;0.88;;;23.80;76.40;;;;;;2347379;53;20957;-80
2022/10/05 12:34:22;;;;;;;2.05;1.00;;;23.80;75.00;;;;;;2342531;53;20933;-81
2022/10/05 12:41:52;;;;;;;1.25;0.70;;;23.90;76.60;;;;;;2343013;54;21522;-80
2022/10/05 12:44:53;;;;;;;2.72;1.10;;;24.00;75.30;;;;;;2345410;54;20948;-78
2022/10/05 12:49:21;;;;;;;1.75;0.88;;;24.10;75.60;;;;;;2342974;53;20968;-81
2022/10/05 12:51:58;;;;;;;3.30;0.82;;;24.10;74.70;;;;;;2387414;53;21795;-79
2022/10/05 12:59:05;;;;;;;3.80;0.82;;;24.10;75.20;;;;;;2349781;53;21355;-79
2022/10/05 13:01:48;;;;;;;1.30;0.70;;;24.20;74.20;;;;;;2385814;53;20987;-81
2022/10/05 13:07:12;;;;;;;;;;;24.30;75.20;;;;;;2345780;53;20952;-78
2022/10/05 13:09:48;;;;;;;1.50;0.50;;;24.30;74.70;;;;;;2343418;53;20359;-79
2022/10/05 13:14:30;;;;;;;2.35;0.70;;;24.40;75.90;;;;;;2424898;53;21000;-81
2022/10/05 13:17:03;;;;;;;3.95;0.80;;;24.40;74.80;;;;;;2469191;54;21051;-80
2022/10/05 13:19:43;;;;;;;2.00;0.77;;;24.50;76.50;;;;;;2382978;53;21028;-79
2022/10/05 13:22:25;;;;;;;3.25;0.80;;;24.50;75.10;;;;;;2341352;53;21016;-79
2022/10/05 13:24:58;;;;;;;;;;;24.60;74.80;;;;;;2411013;53;20960;-78
2022/10/05 13:27:28;;;;;;;1.50;0.70;;;24.60;74.20;;;;;;2342471;53;20075;-79
2022/10/05 13:30:37;;;;;;;2.62;0.77;;;24.70;76.30;;;;;;2405389;53;20951;-78
2022/10/05 13:33:13;;;;;;;2.50;0.93;;;24.70;72.90;;;;;;2391333;53;20948;-79
2022/10/05 13:41:26;;;;;;;1.58;0.70;;;24.70;74.80;;;;;;2342976;54;20944;-79
2022/10/05 13:48:11;;;;;;;9.48;1.25;;;24.90;73.50;;;;;;2341317;54;21777;-79
2022/10/05 13:50:44;;;;;;;1.12;0.52;;;25.00;72.80;;;;;;2321611;54;1305266;-78
2022/10/05 13:53:40;;;;;;;2.25;0.73;;;25.00;74.80;;;;;;2588431;52;20963;-78
2022/10/05 13:56:42;;;;;;;1.92;0.55;;;25.00;73.10;;;;;;2343008;53;20953;-78
2022/10/05 13:59:23;;;;;;;;;;;25.10;74.80;;;;;;2593423;53;21000;-78
2022/10/05 14:02:01;;;;;;;2.10;0.65;;;25.20;73.30;;;;;;2357716;53;20071;-79
2022/10/05 14:04:40;;;;;;;3.30;0.60;;;25.20;73.60;;;;;;2405461;53;21379;-77
2022/10/05 14:08:34;;;;;;;1.60;0.70;;;25.20;75.20;;;;;;2440584;53;20929;-78
2022/10/05 14:13:45;;;;;;;1.58;0.68;;;25.30;72.00;;;;;;2342809;54;20925;-78
2022/10/05 14:16:22;;;;;;;1.10;0.40;;;25.40;72.70;;;;;;2523246;53;21433;-78
2022/10/05 14:20:42;;;;;;;2.05;0.73;;;25.50;72.80;;;;;;2342768;53;20991;-79
2022/10/05 14:23:23;;;;;;;3.65;0.70;;;25.50;74.40;;;;;;2456713;53;21007;-78
2022/10/05 14:25:52;;;;;;;2.05;0.50;;;25.60;72.60;;;;;;2335737;53;21051;-77
2022/10/05 14:28:32;;;;;;;1.48;0.52;;;25.60;74.20;;;;;;2550807;53;20966;-77
2022/10/05 14:31:01;;;;;;;1.50;0.57;;;25.70;72.40;;;;;;2341593;53;21445;-77
2022/10/05 14:33:32;;;;;;;1.70;0.60;;;25.70;73.40;;;;;;2385451;53;20984;-77
2022/10/05 14:36:01;;;;;;;2.15;0.70;;;25.70;72.40;;;;;;2435004;53;21500;-76
2022/10/05 14:38:48;;;;;;;3.42;0.90;;;25.70;73.00;;;;;;2395041;53;21008;-78
2022/10/05 14:41:17;;;;;;;6.43;0.90;;;25.80;71.20;;;;;;2341804;53;21036;-76
2022/10/05 14:46:38;;;;;;;2.15;0.75;;;25.80;72.10;;;;;;2342225;54;21093;-79
2022/10/05 14:49:24;;;;;;;2.17;0.60;;;25.90;69.10;;;;;;2345102;53;21269;-79
2022/10/05 14:51:52;;;;;;;1.92;0.70;;;25.90;70.00;;;;;;2364245;53;20960;-77
2022/10/05 14:54:45;;;;;;;1.55;0.60;;;26.00;72.20;;;;;;2395229;52;21006;-76
2022/10/05 14:58:45;;;;;;;1.52;0.60;;;26.00;69.70;;;;;;2343797;53;20944;-77
2022/10/05 15:01:30;;;;;;;1.73;0.62;;;26.00;68.60;;;;;;2429677;52;21006;-75
2022/10/05 15:05:00;;;;;;;3.05;0.80;;;26.00;69.10;;;;;;2373463;53;21050;-78
2022/10/05 15:07:29;;;;;;;3.85;0.77;;;26.00;67.90;;;;;;2342900;54;21003;-78
2022/10/05 15:10:25;;;;;;;4.32;0.80;;;26.00;70.80;;;;;;2342587;53;20972;-78
2022/10/05 15:12:53;;;;;;;2.83;0.65;;;26.00;69.80;;;;;;2526732;52;21065;-78
2022/10/05 15:16:50;;;;;;;1.60;0.70;;;25.90;70.80;;;;;;2345570;53;21603;-78
2022/10/05 15:21:03;;;;;;;1.92;0.73;;;25.90;69.20;;;;;;2343249;54;21845;-79
2022/10/05 15:23:46;;;;;;;2.35;0.70;;;25.90;68.60;;;;;;2453909;53;21022;-80
2022/10/05 15:26:42;;;;;;;1.05;0.50;;;25.90;68.20;;;;;;2483553;53;21605;-78
2022/10/05 15:29:17;;;;;;;2.50;0.65;;;25.80;68.00;;;;;;2343512;54;20920;-79
2022/10/05 15:34:56;;;;;;;1.70;0.68;;;25.80;70.00;;;;;;2347265;53;20994;-79
2022/10/05 15:37:26;;;;;;;2.00;0.65;;;25.70;68.30;;;;;;2412118;53;20933;-79
2022/10/05 15:40:02;;;;;;;3.85;1.55;;;25.70;70.30;;;;;;2365315;53;20925;-78
2022/10/05 15:42:44;;;;;;;1.42;0.62;;;25.70;68.90;;;;;;2343035;53;21432;-79
2022/10/05 15:45:37;;;;;;;2.53;1.00;;;25.60;69.30;;;;;;2589669;53;21009;-80
2022/10/05 15:48:42;;;;;;;1.75;0.80;;;25.60;68.40;;;;;;2343256;54;20979;-79
2022/10/05 15:51:32;;;;;;;2.83;0.77;;;25.60;67.60;;;;;;2530402;53;21414;-79
2022/10/05 15:57:19;;;;;;;1.80;0.73;;;25.50;69.10;;;;;;2346673;53;20978;-78
2022/10/05 16:03:27;;;;;;;1.62;0.60;;;25.50;68.80;;;;;;2345456;54;21019;-80
2022/10/05 16:09:20;;;;;;;1.40;0.55;;;25.40;69.60;;;;;;2543962;52;20939;-79
2022/10/05 16:11:52;;;;;;;1.70;0.60;;;25.30;68.20;;;;;;2475886;53;21032;-78
2022/10/05 16:14:55;;;;;;;1.70;0.60;;;25.20;69.60;;;;;;2343666;54;20976;-78
2022/10/05 16:18:59;;;;;;;2.85;0.85;;;25.20;67.70;;;;;;2508276;52;20927;-78
2022/10/05 16:21:56;;;;;;;1.90;0.80;;;25.10;67.70;;;;;;2503462;53;20920;-78
2022/10/05 16:25:00;;;;;;;1.87;0.70;;;25.10;69.70;;;;;;2326001;54;20951;-78
2022/10/05 16:29:31;;;;;;;2.05;0.77;;;25.00;68.00;;;;;;2341717;53;21873;-78
2022/10/05 16:32:20;;;;;;;1.55;0.73;;;25.00;68.60;;;;;;2359259;53;21716;-77
2022/10/05 16:37:02;;;;;;;2.47;0.90;;;24.90;68.00;;;;;;2343191;53;20940;-79
2022/10/05 16:39:56;;;;;;;1.42;0.70;;;24.80;67.70;;;;;;2342044;53;20940;-80
2022/10/05 16:43:56;;;;;;;2.15;0.90;;;24.80;68.20;;;;;;2345757;53;20948;-80
2022/10/05 16:46:50;;;;;;;4.10;0.85;;;24.70;68.20;;;;;;2343135;54;20928;-80
2022/10/05 16:52:38;;;;;;;2.22;0.73;;;24.60;68.70;;;;;;2343342;53;20975;-80
2022/10/05 16:55:10;;;;;;;4.28;0.90;;;24.60;68.30;;;;;;2342495;53;21484;-80
2022/10/05 16:57:40;;;;;;;2.47;1.08;;;24.50;70.10;;;;;;2431789;53;21443;-79
2022/10/05 17:00:19;;;;;;;2.87;1.10;;;24.40;69.90;;;;;;2347124;53;21651;-79
2022/10/05 17:03:03;;;;;;;3.12;1.37;;;24.40;68.70;;;;;;2369767;53;20988;-80
2022/10/05 17:07:09;;;;;;;2.95;1.20;;;24.30;69.30;;;;;;2589080;53;20901;-80
2022/10/05 17:09:43;;;;;;;2.55;1.10;;;24.20;68.00;;;;;;2496822;53;20960;-80
2022/10/05 17:13:36;;;;;;;3.78;1.35;;;24.20;70.00;;;;;;2345831;53;20923;-81
2022/10/05 17:22:11;;;;;;;6.57;2.53;;;24.10;68.30;;;;;;2372573;53;21298;-80
2022/10/05 17:29:51;;;;;;;3.90;1.45;;;24.00;68.40;;;;;;2371967;53;20982;-80
2022/10/05 17:32:32;;;;;;;2.85;1.27;;;23.90;68.80;;;;;;2339413;53;21024;-81
2022/10/05 17:35:15;;;;;;;3.75;1.52;;;23.70;69.30;;;;;;2344718;53;20943;-81
2022/10/05 17:38:06;;;;;;;5.82;1.77;;;23.60;68.90;;;;;;2343012;54;21008;-80
2022/10/05 17:40:37;;;;;;;2.47;1.05;;;23.60;69.00;;;;;;2360393;53;20979;-81
2022/10/05 17:43:24;;;;;;;3.05;1.08;;;23.50;70.00;;;;;;2343237;53;21056;-80
2022/10/05 17:46:00;;;;;;;2.90;1.00;;;23.40;68.60;;;;;;2345771;53;21226;-81
2022/10/05 17:56:55;;;;;;;2.10;0.82;;;23.30;68.50;;;;;;2421770;53;20956;-80
2022/10/05 17:59:47;;;;;;;1.92;0.80;;;23.20;69.10;;;;;;2494020;52;20987;-80
2022/10/05 18:02:44;;;;;;;2.40;0.90;;;23.20;69.20;;;;;;2341476;53;21864;-80
2022/10/05 18:08:36;;;;;;;2.83;1.08;;;23.10;69.60;;;;;;2341694;53;21008;-81
2022/10/05 18:11:15;;;;;;;2.17;0.80;;;23.00;69.00;;;;;;2341044;53;21389;-80
2022/10/05 18:13:45;;;;;;;1.80;0.85;;;23.00;70.60;;;;;;2342578;54;20969;-81
2022/10/05 18:16:11;;;;;;;2.17;1.00;;;22.90;70.50;;;;;;2371377;53;21000;-80
2022/10/05 18:19:15;;;;;;;2.03;0.90;;;22.90;70.70;;;;;;2387972;53;20948;-80
2022/10/05 18:25:29;;;;;;;2.85;0.80;;;22.80;68.90;;;;;;2345199;53;21629;-80
2022/10/05 18:30:37;;;;;;;3.97;1.00;;;22.80;69.30;;;;;;2401006;53;20944;-80
2022/10/05 18:33:48;;;;;;;2.22;0.80;;;22.80;69.30;;;;;;2342714;53;21007;-80
2022/10/05 18:36:49;;;;;;;2.17;0.75;;;22.70;69.60;;;;;;2341560;53;21526;-80
2022/10/05 18:41:58;;;;;;;1.77;0.80;;;22.70;69.90;;;;;;2355439;53;20964;-80
2022/10/05 18:44:39;;;;;;;1.98;0.88;;;22.70;69.70;;;;;;2567529;53;21903;-78
2022/10/05 18:54:03;;;;;;;3.65;1.02;;;22.60;70.10;;;;;;2502055;53;20965;-79
2022/10/05 18:56:40;;;;;;;2.35;0.60;;;22.60;69.80;;;;;;2377993;53;20971;-80
2022/10/05 18:59:46;;;;;;;1.37;0.62;;;22.60;70.70;;;;;;2398126;53;21001;-78
2022/10/05 19:02:42;;;;;;;2.75;0.82;;;22.50;69.40;;;;;;2356720;53;21212;-79
2022/10/05 19:07:01;;;;;;;2.12;0.82;;;22.50;70.20;;;;;;2342744;54;21518;-79
2022/10/05 19:09:54;;;;;;;2.03;0.80;;;22.40;69.40;;;;;;2362354;53;21299;-78
2022/10/05 19:19:13;;;;;;;4.28;0.95;;;22.40;70.50;;;;;;2346262;53;20999;-79
2022/10/05 19:21:52;;;;;;;;;;;22.30;70.40;;;;;;2399294;53;20956;-80